Time;durP1;ratioP1;P1;durP2;ratioP2;P2;SDS_P1;SDS_P2;PMS_P1;PMS_P2;Temp;Humidity;BMP_temperature;BMP_pressure;BME280_temperature;BME280_humidity;BME280_pressure;Samples;Min_cycle;Max_cycle;Signal;HPM_P1;HPM_P2
2024/02/01 00:00:10;;;;;;;20.20;12.05;;;7.70;99.90;;;;;;5052486;28;20064;-73
2024/02/01 00:02:36;;;;;;;20.70;12.98;;;7.70;99.90;;;;;;5042131;28;20433;-73
2024/02/01 00:05:01;;;;;;;22.73;13.35;;;7.70;99.90;;;;;;5032167;28;20115;-73
2024/02/01 00:07:27;;;;;;;19.42;12.90;;;7.70;99.90;;;;;;5032609;28;20026;-73
2024/02/01 00:09:52;;;;;;;23.55;14.52;;;7.70;99.90;;;;;;5032276;28;20031;-73
2024/02/01 00:12:18;;;;;;;24.48;13.60;;;7.70;99.90;;;;;;5018131;28;20037;-73
2024/02/01 00:14:44;;;;;;;24.30;13.85;;;7.70;99.90;;;;;;5018311;28;20025;-73
2024/02/01 00:17:09;;;;;;;22.20;14.25;;;7.70;99.90;;;;;;5051096;28;20544;-73
2024/02/01 00:19:35;;;;;;;26.33;15.23;;;7.70;99.90;;;;;;5032268;28;20029;-73
2024/02/01 00:22:00;;;;;;;25.02;15.27;;;7.80;99.90;;;;;;5031849;28;20033;-73
2024/02/01 00:24:26;;;;;;;23.98;15.15;;;7.80;99.90;;;;;;5032514;28;20037;-73
2024/02/01 00:26:51;;;;;;;25.30;14.38;;;7.80;99.90;;;;;;5031761;28;20026;-73
2024/02/01 00:29:17;;;;;;;27.38;15.70;;;7.80;99.90;;;;;;5032160;28;20497;-73
2024/02/01 00:31:43;;;;;;;24.67;14.57;;;7.80;99.90;;;;;;5031810;28;20049;-74
2024/02/01 00:34:08;;;;;;;28.38;16.02;;;7.80;99.90;;;;;;5032179;28;20064;-73
2024/02/01 00:36:34;;;;;;;23.75;14.77;;;7.80;99.90;;;;;;5031525;28;20026;-73
2024/02/01 00:39:00;;;;;;;21.00;14.38;;;7.80;99.90;;;;;;5031634;28;20108;-73
2024/02/01 00:41:25;;;;;;;22.20;15.10;;;7.80;99.90;;;;;;5032000;28;20080;-73
2024/02/01 00:43:51;;;;;;;26.40;14.57;;;7.90;99.90;;;;;;5030621;28;20029;-73
2024/02/01 00:46:17;;;;;;;22.48;15.23;;;7.90;99.90;;;;;;5036123;28;20055;-73
2024/02/01 00:48:42;;;;;;;23.77;15.85;;;7.90;99.90;;;;;;5051257;28;20075;-73
2024/02/01 00:51:08;;;;;;;25.08;15.75;;;7.90;99.90;;;;;;5050409;28;20029;-73
2024/02/01 00:53:34;;;;;;;23.85;16.08;;;7.90;99.90;;;;;;5051960;28;20021;-73
2024/02/01 00:55:59;;;;;;;23.83;15.88;;;7.90;99.90;;;;;;5044283;28;20025;-73
2024/02/01 00:58:25;;;;;;;24.55;15.75;;;8.00;99.90;;;;;;5038704;28;20029;-73
2024/02/01 01:00:51;;;;;;;22.70;16.23;;;8.00;99.90;;;;;;5031306;28;20060;-73
2024/02/01 01:03:18;;;;;;;25.40;15.82;;;8.00;99.90;;;;;;5031862;28;20032;-73
2024/02/01 01:05:44;;;;;;;21.95;15.48;;;8.00;99.90;;;;;;5038512;28;20036;-73
2024/02/01 01:08:09;;;;;;;23.90;16.92;;;8.00;99.90;;;;;;5043360;28;20017;-73
2024/02/01 01:10:35;;;;;;;26.02;15.93;;;8.00;99.90;;;;;;5031975;28;20091;-73
2024/02/01 01:13:01;;;;;;;29.25;15.77;;;8.10;99.90;;;;;;5032238;28;20516;-73
2024/02/01 01:15:26;;;;;;;29.45;17.70;;;8.10;99.90;;;;;;5031667;28;20022;-73
2024/02/01 01:17:52;;;;;;;23.25;16.88;;;8.10;99.90;;;;;;5030943;28;20080;-73
2024/02/01 01:20:18;;;;;;;23.55;15.82;;;8.10;99.90;;;;;;5031367;28;20021;-73
2024/02/01 01:22:43;;;;;;;22.75;16.50;;;8.10;99.90;;;;;;5036380;28;20037;-73
2024/02/01 01:25:09;;;;;;;27.35;16.83;;;8.10;99.90;;;;;;5031538;28;20021;-73
2024/02/01 01:27:34;;;;;;;31.23;18.50;;;8.10;99.90;;;;;;5031244;28;20025;-73
2024/02/01 01:30:00;;;;;;;27.58;18.63;;;8.20;99.90;;;;;;5031029;28;20573;-73
2024/02/01 01:32:25;;;;;;;26.88;18.15;;;8.20;99.90;;;;;;5035673;28;20087;-73
2024/02/01 01:34:51;;;;;;;27.73;18.00;;;8.10;99.90;;;;;;5032841;28;20025;-73
2024/02/01 01:37:17;;;;;;;28.63;16.88;;;8.20;99.90;;;;;;5043643;28;20374;-73
2024/02/01 01:39:42;;;;;;;30.42;18.00;;;8.20;99.90;;;;;;5031075;28;20389;-73
2024/02/01 01:42:08;;;;;;;25.17;16.85;;;8.20;99.90;;;;;;5031343;28;20029;-73
2024/02/01 01:44:33;;;;;;;25.90;17.30;;;8.20;99.90;;;;;;5030820;28;20061;-73
2024/02/01 01:46:59;;;;;;;25.13;16.75;;;8.20;99.90;;;;;;5030906;28;20029;-73
2024/02/01 01:49:25;;;;;;;26.05;16.58;;;8.30;99.90;;;;;;5029795;28;20042;-73
2024/02/01 01:51:53;;;;;;;22.63;13.43;;;8.30;99.90;;;;;;5046897;28;20075;-73
2024/02/01 01:54:21;;;;;;;23.60;13.82;;;8.40;99.90;;;;;;5034455;28;20029;-73
2024/02/01 01:56:48;;;;;;;22.35;13.75;;;8.40;99.90;;;;;;5034027;28;20025;-73
2024/02/01 01:59:16;;;;;;;25.58;14.35;;;8.50;99.90;;;;;;5034968;28;20029;-73
2024/02/01 02:01:46;;;;;;;22.70;13.93;;;8.50;99.90;;;;;;5045821;28;20024;-73
2024/02/01 02:04:14;;;;;;;20.73;13.45;;;8.60;99.90;;;;;;5042525;28;20061;-73
2024/02/01 02:06:42;;;;;;;18.35;13.30;;;8.60;99.90;;;;;;5035017;28;20021;-73
2024/02/01 02:09:15;;;;;;;19.40;13.80;;;8.60;99.90;;;;;;5034533;28;20032;-73
2024/02/01 02:11:44;;;;;;;18.02;12.85;;;8.70;99.90;;;;;;5034214;28;20297;-73
2024/02/01 02:14:14;;;;;;;23.08;13.45;;;8.70;99.90;;;;;;5034835;28;20100;-73
2024/02/01 02:16:41;;;;;;;19.55;13.82;;;8.70;99.90;;;;;;5037322;28;20045;-73
2024/02/01 02:19:09;;;;;;;22.80;12.30;;;8.70;99.90;;;;;;5034024;28;20040;-73
2024/02/01 02:21:44;;;;;;;22.27;14.10;;;8.70;99.90;;;;;;5037702;28;20028;-73
2024/02/01 02:24:10;;;;;;;21.60;14.43;;;8.80;99.90;;;;;;5052895;28;20071;-73
2024/02/01 02:26:35;;;;;;;21.65;14.00;;;8.80;99.90;;;;;;5013504;28;20022;-73
2024/02/01 02:29:03;;;;;;;18.90;13.32;;;8.80;99.90;;;;;;5014492;28;20034;-73
2024/02/01 02:31:28;;;;;;;23.05;13.35;;;8.80;99.90;;;;;;5040846;28;20142;-73
2024/02/01 02:33:54;;;;;;;19.60;12.57;;;8.80;99.90;;;;;;5039666;28;20109;-73
2024/02/01 02:36:20;;;;;;;19.27;13.27;;;8.80;99.90;;;;;;5034308;28;20034;-73
2024/02/01 02:38:45;;;;;;;22.40;14.00;;;8.90;99.90;;;;;;5033958;28;20036;-73
2024/02/01 02:41:11;;;;;;;20.95;13.00;;;8.90;99.90;;;;;;5033342;28;20033;-73
2024/02/01 02:43:37;;;;;;;22.08;13.30;;;8.90;99.90;;;;;;5033514;28;20025;-73
2024/02/01 02:46:02;;;;;;;29.65;15.30;;;8.90;99.90;;;;;;5046600;28;20079;-73
2024/02/01 02:48:28;;;;;;;21.92;13.73;;;8.90;99.90;;;;;;5035706;28;20045;-73
2024/02/01 02:50:54;;;;;;;25.90;13.13;;;9.00;99.90;;;;;;5033667;28;20119;-73
2024/02/01 02:53:19;;;;;;;23.00;12.50;;;9.00;99.90;;;;;;5033631;28;20083;-73
2024/02/01 02:55:45;;;;;;;22.92;12.93;;;9.00;99.90;;;;;;5033989;28;20033;-73
2024/02/01 02:58:10;;;;;;;20.58;12.68;;;9.00;99.90;;;;;;5033897;28;20026;-73
2024/02/01 03:00:36;;;;;;;22.05;11.68;;;9.10;99.90;;;;;;5033452;28;20022;-73
2024/02/01 03:03:02;;;;;;;20.10;12.05;;;9.10;99.90;;;;;;5034049;28;20033;-73
2024/02/01 03:05:27;;;;;;;22.92;11.27;;;9.10;99.90;;;;;;5033709;28;20021;-73
2024/02/01 03:07:54;;;;;;;23.25;12.20;;;9.10;99.90;;;;;;5032396;28;20029;-73
2024/02/01 03:10:19;;;;;;;24.98;12.38;;;9.10;99.90;;;;;;5033376;28;20030;-73
2024/02/01 03:12:46;;;;;;;26.65;10.77;;;9.10;99.90;;;;;;5033188;28;20083;-73
2024/02/01 03:15:12;;;;;;;24.38;10.02;;;9.20;99.90;;;;;;5035217;28;20191;-73
2024/02/01 03:17:40;;;;;;;24.63;9.90;;;9.20;99.90;;;;;;5033581;28;20483;-73
2024/02/01 03:20:17;;;;;;;26.08;10.73;;;9.20;99.90;;;;;;5033849;28;20109;-73
2024/02/01 03:22:44;;;;;;;24.40;9.02;;;9.20;99.90;;;;;;5014447;28;20080;-74
2024/02/01 03:25:10;;;;;;;23.08;9.20;;;9.20;99.90;;;;;;5033543;28;20021;-73
2024/02/01 03:27:36;;;;;;;30.92;9.35;;;9.30;99.90;;;;;;5033268;28;20036;-73
2024/02/01 03:30:01;;;;;;;27.33;8.30;;;9.30;99.90;;;;;;5032721;28;20033;-73
2024/02/01 03:32:29;;;;;;;20.63;7.05;;;9.30;99.90;;;;;;5047866;28;20033;-73
2024/02/01 03:34:55;;;;;;;23.27;6.40;;;9.30;99.90;;;;;;5052768;28;20121;-73
2024/02/01 03:37:21;;;;;;;23.52;7.78;;;9.30;99.90;;;;;;5051531;28;20072;-73
2024/02/01 03:39:47;;;;;;;22.73;7.45;;;9.30;99.90;;;;;;5032802;28;20535;-73
2024/02/01 03:42:13;;;;;;;19.00;6.50;;;9.30;99.90;;;;;;5042269;28;20024;-73
2024/02/01 03:44:39;;;;;;;20.42;6.38;;;9.30;99.90;;;;;;5039215;28;20025;-73
2024/02/01 03:47:11;;;;;;;23.13;6.40;;;9.30;99.90;;;;;;5032484;28;20017;-73
2024/02/01 03:49:40;;;;;;;24.40;6.18;;;9.30;99.90;;;;;;5033260;28;20029;-73
2024/02/01 03:52:07;;;;;;;18.13;5.90;;;9.30;99.90;;;;;;5020159;28;20033;-73
2024/02/01 03:54:33;;;;;;;25.60;6.40;;;9.20;99.90;;;;;;5032746;28;20025;-73
2024/02/01 03:56:59;;;;;;;18.63;5.32;;;9.20;99.90;;;;;;5032552;28;20025;-73
2024/02/01 03:59:25;;;;;;;26.63;5.32;;;9.20;99.90;;;;;;5032468;28;20120;-73
2024/02/01 04:01:50;;;;;;;19.27;4.93;;;9.10;99.90;;;;;;5031911;28;20029;-73
2024/02/01 04:04:20;;;;;;;20.67;4.07;;;9.00;99.90;;;;;;5032840;28;20030;-73
2024/02/01 04:06:46;;;;;;;18.08;3.85;;;9.00;99.90;;;;;;5052166;28;20025;-73
2024/02/01 04:09:12;;;;;;;17.38;4.07;;;8.90;99.90;;;;;;5036352;28;20025;-73
2024/02/01 04:11:37;;;;;;;21.70;4.50;;;8.90;99.90;;;;;;5040590;28;20037;-73
2024/02/01 04:14:03;;;;;;;20.30;4.78;;;8.90;99.90;;;;;;5045438;28;20021;-73
2024/02/01 04:16:29;;;;;;;27.20;6.10;;;8.80;99.90;;;;;;5032389;28;20048;-73
2024/02/01 04:18:57;;;;;;;18.92;4.15;;;8.80;99.90;;;;;;5031906;28;20022;-73
2024/02/01 04:21:23;;;;;;;21.63;3.65;;;8.70;99.90;;;;;;5035114;28;20029;-73
2024/02/01 04:23:48;;;;;;;19.23;3.13;;;8.70;99.90;;;;;;5032108;28;20025;-73
2024/02/01 04:26:16;;;;;;;20.67;3.05;;;8.70;99.90;;;;;;5032251;28;20088;-73
2024/02/01 04:28:43;;;;;;;11.52;1.00;;;8.70;99.90;;;;;;5031854;28;20481;-73
2024/02/01 04:31:08;;;;;;;13.38;1.58;;;8.50;99.90;;;;;;5032423;28;20037;-73
2024/02/01 04:33:34;;;;;;;7.05;0.80;;;8.40;99.90;;;;;;5032066;28;20026;-73
2024/02/01 04:36:00;;;;;;;13.00;1.25;;;8.10;99.90;;;;;;5031525;28;20040;-73
2024/02/01 04:38:25;;;;;;;20.45;1.40;;;7.90;99.90;;;;;;5031964;28;20025;-73
2024/02/01 04:40:52;;;;;;;16.45;0.75;;;7.70;99.90;;;;;;5031675;28;20033;-73
2024/02/01 04:43:19;;;;;;;14.43;1.08;;;7.50;99.90;;;;;;5031598;28;20032;-73
2024/02/01 04:45:48;;;;;;;12.80;1.23;;;7.30;99.90;;;;;;5031367;28;20049;-73
2024/02/01 04:48:14;;;;;;;14.82;0.98;;;7.20;99.90;;;;;;5031943;28;20056;-73
2024/02/01 04:50:39;;;;;;;11.63;1.67;;;7.00;99.90;;;;;;5032384;28;20034;-73
2024/02/01 04:53:06;;;;;;;16.95;0.90;;;6.90;99.90;;;;;;5051460;28;20463;-73
2024/02/01 04:55:32;;;;;;;16.05;0.98;;;6.80;99.90;;;;;;5049266;28;20021;-73
2024/02/01 04:57:58;;;;;;;17.33;0.98;;;6.70;99.90;;;;;;5031323;28;20037;-73
2024/02/01 05:00:24;;;;;;;13.02;1.05;;;6.60;99.90;;;;;;5031991;28;20361;-73
2024/02/01 05:02:50;;;;;;;19.52;1.83;;;6.50;99.90;;;;;;5030626;28;20025;-73
2024/02/01 05:05:17;;;;;;;15.48;1.23;;;6.50;99.90;;;;;;5030933;28;20026;-73
2024/02/01 05:07:42;;;;;;;13.48;0.82;;;6.40;99.90;;;;;;5031415;28;20033;-73
2024/02/01 05:10:09;;;;;;;19.25;1.95;;;6.40;99.90;;;;;;5035606;28;20029;-73
2024/02/01 05:12:36;;;;;;;16.08;0.90;;;6.40;99.90;;;;;;5034530;28;20048;-74
2024/02/01 05:15:03;;;;;;;14.73;1.02;;;6.30;99.90;;;;;;5030505;28;20112;-73
2024/02/01 05:17:29;;;;;;;14.48;1.38;;;6.20;99.90;;;;;;5031472;28;20453;-73
2024/02/01 05:19:58;;;;;;;21.10;1.73;;;6.20;99.90;;;;;;5030718;28;20096;-73
2024/02/01 05:22:25;;;;;;;13.98;1.10;;;6.10;99.90;;;;;;5042730;28;20018;-73
2024/02/01 05:24:50;;;;;;;16.38;1.10;;;6.10;99.90;;;;;;5030610;28;20025;-73
2024/02/01 05:27:16;;;;;;;14.98;1.20;;;6.00;99.90;;;;;;5031522;28;20031;-73
2024/02/01 05:29:49;;;;;;;20.70;1.10;;;6.00;99.90;;;;;;5031064;28;20018;-73
2024/02/01 05:32:16;;;;;;;16.08;1.25;;;6.00;99.90;;;;;;5034994;28;20065;-73
2024/02/01 05:34:41;;;;;;;15.23;1.80;;;5.90;99.90;;;;;;5035283;28;20111;-74
2024/02/01 05:37:08;;;;;;;10.35;0.85;;;5.90;99.90;;;;;;5035828;28;20513;-73
2024/02/01 05:39:34;;;;;;;15.73;0.98;;;5.80;99.90;;;;;;5035341;28;20101;-73
2024/02/01 05:42:04;;;;;;;18.42;1.15;;;5.80;99.90;;;;;;5035031;28;20083;-73
2024/02/01 05:44:30;;;;;;;13.30;0.80;;;5.70;99.90;;;;;;5035533;28;20068;-73
2024/02/01 05:46:57;;;;;;;24.20;1.75;;;5.70;99.90;;;;;;5034857;28;20030;-73
2024/02/01 05:49:26;;;;;;;18.67;1.00;;;5.70;99.90;;;;;;5035139;28;20151;-73
2024/02/01 05:51:53;;;;;;;15.82;1.10;;;5.50;99.90;;;;;;5034423;28;20432;-73
2024/02/01 05:54:20;;;;;;;16.15;0.82;;;5.50;99.90;;;;;;5034650;28;20520;-73
2024/02/01 05:56:46;;;;;;;14.52;1.75;;;5.50;99.90;;;;;;5034677;28;20037;-73
2024/02/01 05:59:13;;;;;;;18.58;2.15;;;5.40;99.90;;;;;;5038657;28;20052;-73
2024/02/01 06:01:46;;;;;;;14.05;0.80;;;5.40;99.90;;;;;;5046134;28;20030;-73
2024/02/01 06:04:13;;;;;;;10.15;1.23;;;5.30;99.90;;;;;;5033771;28;20382;-72
2024/02/01 06:06:48;;;;;;;9.88;1.45;;;5.20;99.90;;;;;;5034943;28;20454;-73
2024/02/01 06:09:15;;;;;;;13.52;1.95;;;5.10;99.90;;;;;;5035103;28;20096;-73
2024/02/01 06:11:45;;;;;;;20.15;1.50;;;5.10;99.90;;;;;;5054716;28;20561;-72
2024/02/01 06:14:14;;;;;;;9.32;0.90;;;5.10;99.90;;;;;;5043958;28;20029;-73
2024/02/01 06:16:40;;;;;;;21.45;1.65;;;5.00;99.90;;;;;;5054496;28;20071;-73
2024/02/01 06:19:06;;;;;;;21.10;1.92;;;5.00;99.90;;;;;;5048108;28;20018;-73
2024/02/01 06:21:32;;;;;;;19.83;1.48;;;4.90;99.90;;;;;;5034502;28;20508;-73
2024/02/01 06:23:58;;;;;;;18.80;1.10;;;4.90;99.90;;;;;;5034048;28;20017;-73
2024/02/01 06:26:25;;;;;;;16.83;0.88;;;4.80;99.90;;;;;;5036900;28;20025;-73
2024/02/01 06:29:00;;;;;;;11.15;0.68;;;4.80;99.90;;;;;;5033731;28;20021;-73
2024/02/01 06:31:26;;;;;;;14.38;1.42;;;4.70;99.90;;;;;;5032185;28;20036;-73
2024/02/01 06:33:55;;;;;;;26.85;2.35;;;4.70;99.90;;;;;;5045772;28;20140;-73
2024/02/01 06:36:23;;;;;;;13.88;1.48;;;4.70;99.90;;;;;;5034148;28;20068;-73
2024/02/01 06:42:14;;;;;;;18.92;1.40;;;4.60;99.90;;;;;;5036959;28;20423;-73
2024/02/01 06:44:26;;;;;;;21.58;1.70;;;4.70;99.90;;;;;;5040461;28;20042;-73
2024/02/01 06:49:39;;;;;;;16.80;1.75;;;4.60;99.90;;;;;;5034110;28;20064;-73
2024/02/01 06:55:06;;;;;;;22.20;1.02;;;4.50;99.90;;;;;;5033968;28;20030;-73
2024/02/01 06:57:48;;;;;;;18.98;1.17;;;4.40;99.90;;;;;;5034026;28;20040;-73
2024/02/01 07:03:02;;;;;;;18.02;1.30;;;4.30;99.90;;;;;;5033584;28;20083;-73
2024/02/01 07:08:26;;;;;;;17.10;1.60;;;4.30;99.90;;;;;;5034150;28;20025;-73
2024/02/01 07:11:13;;;;;;;14.45;0.95;;;4.20;99.90;;;;;;5033286;28;20428;-73
2024/02/01 07:16:36;;;;;;;14.85;1.17;;;4.10;99.90;;;;;;5037574;28;20033;-72
2024/02/01 08:00:27;;;;;;;21.88;1.10;;;4.20;99.90;;;;;;5032944;28;20028;-73
2024/02/01 08:03:00;;;;;;;23.30;1.80;;;4.20;99.90;;;;;;5032621;28;20051;-72
2024/02/01 08:08:16;;;;;;;21.10;2.22;;;4.20;99.90;;;;;;5032878;28;20120;-73
2024/02/01 08:10:43;;;;;;;21.48;1.50;;;4.20;99.90;;;;;;5032373;28;20029;-73
2024/02/01 08:13:12;;;;;;;23.10;1.42;;;4.30;99.90;;;;;;5033424;28;20025;-73
2024/02/01 08:15:44;;;;;;;22.65;1.63;;;4.30;99.90;;;;;;5034640;28;20052;-73
2024/02/01 08:18:10;;;;;;;17.80;1.42;;;4.30;99.90;;;;;;5038387;28;20392;-73
2024/02/01 08:20:37;;;;;;;18.45;1.40;;;4.40;99.90;;;;;;5044226;28;20037;-72
2024/02/01 08:23:03;;;;;;;19.08;1.58;;;4.40;99.90;;;;;;5032084;28;20032;-73
2024/02/01 08:25:30;;;;;;;17.50;1.35;;;4.50;99.90;;;;;;5048760;28;20401;-73
2024/02/01 08:27:57;;;;;;;14.35;1.48;;;4.50;99.90;;;;;;5036363;28;20052;-73
2024/02/01 08:30:27;;;;;;;17.55;1.60;;;4.60;99.90;;;;;;5032241;28;20143;-72
2024/02/01 08:32:53;;;;;;;13.85;2.00;;;4.60;99.90;;;;;;5031839;28;20030;-72
2024/02/01 08:35:19;;;;;;;17.75;1.55;;;4.60;99.90;;;;;;5031938;28;20029;-73
2024/02/01 08:37:45;;;;;;;22.42;1.63;;;4.70;99.90;;;;;;5031724;28;20029;-73
2024/02/01 08:40:22;;;;;;;15.07;1.45;;;4.70;99.90;;;;;;5032147;28;20520;-73
2024/02/01 08:42:57;;;;;;;22.27;1.80;;;4.80;99.90;;;;;;5031039;28;20029;-73
2024/02/01 08:45:28;;;;;;;25.75;1.92;;;4.90;99.90;;;;;;5032013;28;20017;-73
2024/02/01 08:48:00;;;;;;;11.45;1.60;;;4.90;99.90;;;;;;5031091;28;20050;-73
2024/02/01 08:50:27;;;;;;;15.80;1.92;;;5.00;99.90;;;;;;5031819;28;20032;-73
2024/02/01 08:52:53;;;;;;;28.27;2.92;;;5.10;99.90;;;;;;5031099;28;20474;-73
2024/02/01 08:55:19;;;;;;;14.90;1.27;;;5.10;99.90;;;;;;5031807;28;20023;-73
2024/02/01 08:57:45;;;;;;;19.15;1.90;;;5.20;99.90;;;;;;5031020;28;20054;-73
2024/02/01 09:00:25;;;;;;;25.48;3.08;;;5.20;99.90;;;;;;5031443;28;20035;-73
2024/02/01 09:03:05;;;;;;;22.23;1.95;;;5.30;99.90;;;;;;5031476;28;20030;-73
2024/02/01 09:05:39;;;;;;;22.02;2.28;;;5.40;99.90;;;;;;5030352;28;20408;-73
2024/02/01 09:08:08;;;;;;;23.10;1.73;;;5.50;99.90;;;;;;5030790;28;20071;-73
2024/02/01 09:10:35;;;;;;;25.15;1.70;;;5.50;99.90;;;;;;5031942;28;20049;-73
2024/02/01 09:13:01;;;;;;;15.45;1.48;;;5.60;99.90;;;;;;5030847;28;20096;-72
2024/02/01 09:15:27;;;;;;;14.15;2.13;;;5.60;99.90;;;;;;5030917;28;20112;-73
2024/02/01 09:17:56;;;;;;;26.20;2.03;;;5.60;99.90;;;;;;5030960;28;20176;-73
2024/02/01 09:20:22;;;;;;;17.00;1.95;;;5.70;99.90;;;;;;5031392;28;20026;-72
2024/02/01 09:22:52;;;;;;;21.88;1.92;;;5.80;99.90;;;;;;5031109;28;20025;-73
2024/02/01 09:25:20;;;;;;;22.70;1.98;;;5.90;99.90;;;;;;5031309;28;20025;-73
2024/02/01 09:27:49;;;;;;;21.25;1.80;;;5.90;99.90;;;;;;5029304;28;20301;-73
2024/02/01 09:30:19;;;;;;;18.23;1.65;;;6.00;99.90;;;;;;5031380;28;20026;-73
2024/02/01 09:32:49;;;;;;;18.30;2.03;;;6.10;99.90;;;;;;5031092;28;20034;-73
2024/02/01 09:35:19;;;;;;;21.70;2.33;;;6.10;99.90;;;;;;5036614;28;20033;-73
2024/02/01 09:37:45;;;;;;;21.27;2.67;;;6.20;99.90;;;;;;5030878;28;20108;-73
2024/02/01 09:40:11;;;;;;;22.38;2.03;;;6.30;99.90;;;;;;5030870;28;20113;-73
2024/02/01 09:42:43;;;;;;;24.95;2.30;;;6.40;99.90;;;;;;5031300;28;20359;-73
2024/02/01 09:45:09;;;;;;;16.25;2.10;;;6.50;99.90;;;;;;5031046;28;20025;-73
2024/02/01 09:47:43;;;;;;;15.20;2.40;;;6.50;99.90;;;;;;5030953;28;20049;-73
2024/02/01 09:50:15;;;;;;;36.88;2.60;;;6.60;99.90;;;;;;5031249;28;20017;-73
2024/02/01 09:52:45;;;;;;;;;;;6.60;99.90;;;;;;5024415;28;20135;-73
2024/02/01 09:55:17;;;;;;;20.77;2.00;;;6.70;99.90;;;;;;5011406;28;20456;-73
2024/02/01 09:57:47;;;;;;;16.00;1.55;;;6.70;99.90;;;;;;5012489;28;20022;-73
2024/02/01 10:00:17;;;;;;;17.08;2.35;;;6.80;99.90;;;;;;5011495;28;20052;-73
2024/02/01 10:02:47;;;;;;;21.85;3.50;;;6.90;99.90;;;;;;5020125;28;20021;-73
2024/02/01 10:05:13;;;;;;;16.80;2.20;;;6.90;99.90;;;;;;5042422;28;20025;-73
2024/02/01 10:07:39;;;;;;;23.58;3.70;;;7.00;99.90;;;;;;5031012;28;20036;-73
2024/02/01 10:10:05;;;;;;;24.73;2.20;;;7.10;99.90;;;;;;5030692;28;20037;-73
2024/02/01 10:12:32;;;;;;;25.35;2.45;;;7.20;99.90;;;;;;5030870;28;20469;-73
2024/02/01 10:14:58;;;;;;;36.92;2.95;;;7.20;99.90;;;;;;5030115;28;20462;-73
2024/02/01 10:17:24;;;;;;;18.40;3.17;;;7.30;99.90;;;;;;5031926;28;20033;-73
2024/02/01 10:19:52;;;;;;;20.35;1.83;;;7.30;99.90;;;;;;5032881;28;20544;-73
2024/02/01 10:22:19;;;;;;;22.33;1.98;;;7.40;99.90;;;;;;5034257;28;20385;-73
2024/02/01 10:24:48;;;;;;;29.33;2.65;;;7.40;99.90;;;;;;5027092;28;20420;-73
2024/02/01 10:27:21;;;;;;;26.08;2.92;;;7.40;99.90;;;;;;5034453;28;20025;-73
2024/02/01 10:29:47;;;;;;;27.67;2.05;;;7.50;99.90;;;;;;5034388;28;20025;-73
2024/02/01 10:32:14;;;;;;;22.15;2.33;;;7.50;99.90;;;;;;5034281;28;20086;-73
2024/02/01 10:34:50;;;;;;;22.85;1.88;;;7.60;99.90;;;;;;5034371;28;20027;-72
2024/02/01 10:37:18;;;;;;;24.30;2.08;;;7.60;99.90;;;;;;5034668;28;20044;-73
2024/02/01 10:40:01;;;;;;;26.77;2.75;;;7.60;99.90;;;;;;5034046;28;20025;-73
2024/02/01 10:42:30;;;;;;;28.10;3.10;;;7.70;99.90;;;;;;5034371;28;20025;-73
2024/02/01 10:45:02;;;;;;;36.42;3.25;;;7.70;99.90;;;;;;5033770;28;20498;-73
2024/02/01 10:47:31;;;;;;;;;;;7.70;99.90;;;;;;5034180;28;20050;-73
2024/02/01 10:49:57;;;;;;;23.80;2.97;;;7.70;99.90;;;;;;5016083;28;19905;-73
2024/02/01 10:52:23;;;;;;;30.25;2.28;;;7.80;99.90;;;;;;5015895;28;20034;-73
2024/02/01 10:54:49;;;;;;;23.35;2.50;;;7.80;99.90;;;;;;5050706;28;20036;-73
2024/02/01 10:57:17;;;;;;;28.42;3.17;;;7.90;99.90;;;;;;5044264;28;20507;-73
2024/02/01 10:59:46;;;;;;;22.38;2.30;;;7.90;99.90;;;;;;5033704;28;20413;-73
2024/02/01 11:02:12;;;;;;;28.52;2.70;;;7.90;99.90;;;;;;5040724;28;20068;-73
2024/02/01 11:04:38;;;;;;;26.58;2.53;;;7.90;99.90;;;;;;5035431;28;20080;-73
2024/02/01 11:07:05;;;;;;;25.05;2.63;;;7.90;99.90;;;;;;5033749;28;20425;-73
2024/02/01 11:09:31;;;;;;;25.80;2.65;;;7.90;99.90;;;;;;5033839;28;20477;-73
2024/02/01 11:11:57;;;;;;;25.95;3.78;;;7.90;99.90;;;;;;5033975;28;20044;-73
2024/02/01 11:14:31;;;;;;;18.38;1.75;;;7.90;99.90;;;;;;5036876;28;20025;-73
2024/02/01 11:17:02;;;;;;;32.42;3.65;;;8.00;99.90;;;;;;5032961;28;20057;-73
2024/02/01 11:19:32;;;;;;;22.13;2.15;;;7.90;99.90;;;;;;5033537;28;20504;-73
2024/02/01 11:22:02;;;;;;;21.73;2.25;;;8.00;99.90;;;;;;5033068;28;20029;-73
2024/02/01 11:24:29;;;;;;;22.80;3.05;;;7.90;99.90;;;;;;5051954;28;20056;-73
2024/02/01 11:27:03;;;;;;;25.35;2.78;;;8.00;99.90;;;;;;5044986;28;20083;-73
2024/02/01 11:29:35;;;;;;;23.52;2.65;;;8.00;99.90;;;;;;5032677;28;20075;-73
2024/02/01 11:32:04;;;;;;;15.57;1.92;;;8.10;99.90;;;;;;5033133;28;20124;-73
2024/02/01 11:34:33;;;;;;;19.27;1.75;;;8.20;99.90;;;;;;5048439;28;20033;-73
2024/02/01 11:37:00;;;;;;;25.05;1.95;;;8.20;99.90;;;;;;5032489;28;20120;-73
2024/02/01 11:39:27;;;;;;;28.70;2.35;;;8.20;99.90;;;;;;5033011;28;20022;-73
2024/02/01 11:41:53;;;;;;;20.15;2.45;;;8.20;99.90;;;;;;5032902;28;20061;-73
2024/02/01 11:44:20;;;;;;;25.90;2.10;;;8.30;99.90;;;;;;5040114;28;20385;-73
2024/02/01 11:46:47;;;;;;;22.42;2.30;;;8.40;99.90;;;;;;5032582;28;20473;-73
2024/02/01 11:49:16;;;;;;;29.90;2.88;;;8.40;99.90;;;;;;5032983;28;20145;-73
2024/02/01 11:51:46;;;;;;;19.83;2.28;;;8.30;99.90;;;;;;5032184;28;20108;-74
2024/02/01 11:54:12;;;;;;;25.98;2.40;;;8.30;99.90;;;;;;5035471;28;20064;-73
2024/02/01 11:56:39;;;;;;;21.10;2.53;;;8.30;99.90;;;;;;5032843;28;20029;-73
2024/02/01 11:59:06;;;;;;;19.33;2.00;;;8.30;99.90;;;;;;5032554;28;20018;-73
2024/02/01 12:01:32;;;;;;;28.63;2.35;;;8.30;99.90;;;;;;5031435;28;20385;-73
2024/02/01 12:03:58;;;;;;;18.42;2.55;;;8.30;99.90;;;;;;5032024;28;20033;-73
2024/02/01 12:06:24;;;;;;;21.55;1.98;;;8.30;99.90;;;;;;5032147;28;20030;-73
2024/02/01 12:08:50;;;;;;;27.45;2.63;;;8.40;99.90;;;;;;5032459;28;20075;-73
2024/02/01 12:11:19;;;;;;;25.48;2.55;;;8.50;99.90;;;;;;5032200;28;20075;-74
2024/02/01 12:13:48;;;;;;;22.70;2.63;;;8.60;99.90;;;;;;5043961;28;20388;-73
2024/02/01 12:16:25;;;;;;;20.88;2.67;;;8.60;99.90;;;;;;5032564;28;20350;-73
2024/02/01 12:18:53;;;;;;;25.17;3.10;;;8.70;99.90;;;;;;5032368;28;20375;-73
2024/02/01 12:21:26;;;;;;;22.55;2.28;;;8.70;99.90;;;;;;5032260;28;20022;-73
2024/02/01 12:23:59;;;;;;;25.77;2.95;;;8.80;99.90;;;;;;5032266;28;20033;-73
2024/02/01 12:26:29;;;;;;;20.00;2.53;;;8.80;99.90;;;;;;5032691;28;20416;-73
2024/02/01 12:28:55;;;;;;;24.23;2.30;;;8.80;99.90;;;;;;5031862;28;20485;-73
2024/02/01 12:31:22;;;;;;;23.10;2.40;;;8.70;99.90;;;;;;5031876;28;20044;-73
2024/02/01 12:33:49;;;;;;;21.95;2.80;;;8.50;99.90;;;;;;5032574;28;20364;-73
2024/02/01 12:36:17;;;;;;;25.02;2.03;;;8.50;99.90;;;;;;5032506;28;20033;-73
2024/02/01 12:38:47;;;;;;;16.67;1.63;;;8.50;99.90;;;;;;5031894;28;20363;-73
2024/02/01 12:41:16;;;;;;;29.77;3.35;;;8.50;99.90;;;;;;5036656;28;20033;-73
2024/02/01 12:43:42;;;;;;;18.50;1.63;;;8.40;99.90;;;;;;5031953;28;20083;-73
2024/02/01 12:46:09;;;;;;;18.23;1.60;;;8.30;99.90;;;;;;5031922;28;20033;-73
2024/02/01 12:48:39;;;;;;;22.00;2.20;;;8.30;99.90;;;;;;5031682;28;20111;-73
2024/02/01 12:51:06;;;;;;;18.73;1.77;;;8.30;99.90;;;;;;5031007;28;20116;-73
2024/02/01 12:53:32;;;;;;;19.00;2.47;;;8.40;99.90;;;;;;5032925;28;20033;-73
2024/02/01 12:55:58;;;;;;;17.98;2.03;;;8.50;99.90;;;;;;5031163;28;20028;-73
2024/02/01 12:58:23;;;;;;;22.75;1.60;;;8.60;99.90;;;;;;5031813;28;20021;-73
2024/02/01 13:00:49;;;;;;;23.40;2.95;;;8.70;99.90;;;;;;5031221;28;20022;-73
2024/02/01 13:03:15;;;;;;;16.17;1.73;;;8.70;99.90;;;;;;5043267;28;20139;-73
2024/02/01 13:05:44;;;;;;;16.83;1.80;;;8.70;99.90;;;;;;5051615;28;20373;-73
2024/02/01 13:08:14;;;;;;;21.38;2.15;;;8.80;99.90;;;;;;5044413;28;20083;-73
2024/02/01 13:10:44;;;;;;;18.42;1.35;;;9.00;99.90;;;;;;5030451;28;20470;-73
2024/02/01 13:13:10;;;;;;;20.15;1.77;;;9.10;99.90;;;;;;5031771;28;20030;-73
2024/02/01 13:15:36;;;;;;;18.55;1.30;;;9.20;99.90;;;;;;5031873;28;20435;-73
2024/02/01 13:18:02;;;;;;;19.33;2.15;;;9.20;99.90;;;;;;5031204;28;20030;-73
2024/02/01 13:20:29;;;;;;;21.38;1.88;;;9.10;99.90;;;;;;5031430;28;20363;-73
2024/02/01 13:22:56;;;;;;;20.40;1.52;;;9.00;99.90;;;;;;5031033;28;20037;-73
2024/02/01 13:25:22;;;;;;;17.63;2.05;;;9.00;99.90;;;;;;5031266;28;20033;-73
2024/02/01 13:27:49;;;;;;;24.30;1.98;;;8.90;99.90;;;;;;5031068;28;20425;-73
2024/02/01 13:30:16;;;;;;;19.10;2.30;;;8.90;99.90;;;;;;5031799;28;20021;-73
2024/02/01 13:32:43;;;;;;;14.38;1.10;;;8.80;99.90;;;;;;5031586;28;20033;-73
2024/02/01 13:35:13;;;;;;;17.17;1.58;;;8.90;99.90;;;;;;5031582;28;20103;-73
2024/02/01 13:37:39;;;;;;;18.42;2.08;;;8.90;99.90;;;;;;5031237;28;20155;-73
2024/02/01 13:40:06;;;;;;;18.63;1.67;;;9.00;99.90;;;;;;5034426;28;20104;-73
2024/02/01 13:42:34;;;;;;;12.52;0.98;;;8.90;99.90;;;;;;5047468;28;20040;-73
2024/02/01 13:45:02;;;;;;;17.50;1.80;;;9.00;99.90;;;;;;5030862;28;20040;-73
2024/02/01 13:47:28;;;;;;;12.13;0.95;;;9.00;99.90;;;;;;5031352;28;20065;-73